Ana Sayfa
METAR-TAF:

METAR-TAF

Havaalanları :

Pitt-Greenville Airport

Greenville, Kuzey Carolina, Amerika Birleşik Devletleri

Enlem: 35-38N, Boylam: 077-24W, yükseklik: 8 m

Güncel hava durumu gözlemi

Rapor saat 12:35 UTC de 21 dakika önce yapıldı.
Rüzgar batı/güneybatıdan 6 kt
Sıcaklık 20°C
Nem 83%
Basınç 1017 hPa
Görüş mesafesi: 16.1 km
Açık gökyüzü

METAR: KPGV 281235Z AUTO 24006KT 10SM CLR 20/17 A3004 RMK AO2

Saat: 08:56 (12:56 UTC)

Tahmin

Rapor saat 11:20 UTC de 1 saat ve 36 dakika önce yapıldı.
Ayın 28'si saat 12 UTC'den ayın 29'si saat 12 UTC'ye kadar geçerli Tahmin
Rüzgar batı/güneybatıdan 4 kt
Görüş mesafesi: 10 km
Açık gökyüzü
Ayın 29'si saat 1000 UTC'den
Rüzgar batıdan 4 kt
Görüş mesafesi: 10 km
6000 ft yükseklikte az bulutlu

TAF: KPGV 281120Z 2812/2912 24004KT P6SM SKC FM291000 28004KT P6SM FEW060 AMD LTD TO CLD VIS AND WIND

4.000'den fazla havaalanı için hava durumu gözlemleri ve tahminleri (METAR ve TAF raporları).

Kullanılabilir istasyonlar harita üzerinde sarı ve kırmızı noktalarla gösterilir.

İstasyonun adını görmek için fareyi noktanın üzerinde gezdirin.

Sonrasında hava gözlem ve tahminlerini görmek için tıklayın.

Haritayı değiştirmek için: yaklaştırmak için siyah artı işaretli yeşil düğmeye ve uzaklaştırmak için de eksi işaretli düğmeye hızla tıklayın; bitişik haritalar için yeşil okları kullanın.


METAR-TAF: